createdAt,value
2023-04-27T00:01:28.966Z,3.60
2023-04-27T00:03:55.935Z,3.60
2023-04-27T00:06:24.339Z,3.53
2023-04-27T00:08:51.078Z,3.70
2023-04-27T00:11:17.863Z,3.53
2023-04-27T00:13:44.643Z,3.78
2023-04-27T00:16:11.530Z,3.28
2023-04-27T00:18:38.285Z,3.40
2023-04-27T00:21:05.213Z,3.42
2023-04-27T00:23:33.273Z,3.50
2023-04-27T00:25:59.999Z,4.03
2023-04-27T00:28:26.702Z,3.70
2023-04-27T00:30:53.545Z,3.45
2023-04-27T00:33:20.614Z,3.80
2023-04-27T00:35:47.420Z,4.53
2023-04-27T00:38:14.627Z,3.40
2023-04-27T00:40:42.729Z,3.53
2023-04-27T00:43:09.713Z,3.67
2023-04-27T00:45:41.047Z,4.10
2023-04-27T00:48:08.302Z,4.13
2023-04-27T00:50:35.190Z,3.17
2023-04-27T00:53:02.327Z,3.58
2023-04-27T00:55:29.108Z,3.47
2023-04-27T00:57:59.702Z,3.67
2023-04-27T01:00:26.589Z,3.30
2023-04-27T01:02:53.650Z,3.80
2023-04-27T01:05:20.745Z,3.42
2023-04-27T01:07:47.529Z,3.35
2023-04-27T01:10:14.561Z,3.85
2023-04-27T01:12:41.324Z,3.83
2023-04-27T01:15:10.981Z,3.38
2023-04-27T01:17:37.788Z,3.78
2023-04-27T01:20:05.774Z,3.47
2023-04-27T01:22:32.663Z,3.90
2023-04-27T01:25:00.730Z,4.38
2023-04-27T01:27:27.512Z,3.97
2023-04-27T01:29:54.500Z,4.07
2023-04-27T01:32:21.296Z,3.80
2023-04-27T01:34:48.126Z,3.42
2023-04-27T01:37:14.891Z,3.20
2023-04-27T01:39:41.697Z,3.40
2023-04-27T01:42:09.808Z,3.78
2023-04-27T01:44:36.584Z,3.90
2023-04-27T01:47:03.376Z,4.18
2023-04-27T01:49:30.141Z,3.70
2023-04-27T01:51:56.861Z,4.10
2023-04-27T01:54:23.593Z,3.20
2023-04-27T01:56:50.341Z,3.10
2023-04-27T01:59:18.425Z,3.42
2023-04-27T02:01:45.249Z,3.90
2023-04-27T02:04:12.268Z,3.28
2023-04-27T02:06:39.161Z,3.25
2023-04-27T02:09:06.482Z,4.60
2023-04-27T02:11:33.325Z,3.40
2023-04-27T02:14:00.068Z,3.90
2023-04-27T02:16:28.223Z,3.72
2023-04-27T02:18:55.197Z,3.73
2023-04-27T02:21:22.123Z,3.42
2023-04-27T02:23:48.893Z,3.55
2023-04-27T02:26:18.798Z,3.53
2023-04-27T02:28:45.750Z,3.97
2023-04-27T02:31:13.297Z,3.67
2023-04-27T02:33:41.826Z,3.83
2023-04-27T02:36:09.155Z,3.92
2023-04-27T02:38:35.913Z,3.75
2023-04-27T02:41:02.706Z,3.97
2023-04-27T02:43:29.466Z,4.40
2023-04-27T02:45:56.185Z,4.00
2023-04-27T02:48:22.942Z,4.22
2023-04-27T02:50:51.051Z,4.03
2023-04-27T02:53:17.805Z,4.20
2023-04-27T02:55:47.682Z,3.90
2023-04-27T02:58:14.613Z,4.00
2023-04-27T03:00:41.549Z,4.00
2023-04-27T03:03:08.775Z,4.55
2023-04-27T03:05:35.693Z,3.80
2023-04-27T03:08:04.032Z,4.57
2023-04-27T03:10:30.967Z,4.28
2023-04-27T03:12:57.717Z,4.07
2023-04-27T03:15:24.479Z,4.25
2023-04-27T03:17:52.603Z,4.38
2023-04-27T03:20:19.521Z,4.10
2023-04-27T03:22:46.290Z,4.18
2023-04-27T03:25:14.487Z,4.20
2023-04-27T03:27:43.870Z,4.90
2023-04-27T03:30:11.862Z,4.30
2023-04-27T03:32:47.145Z,4.60
2023-04-27T03:35:14.706Z,3.97
2023-04-27T03:37:41.469Z,3.63
2023-04-27T03:40:09.428Z,4.60
2023-04-27T03:42:37.546Z,4.57
2023-04-27T03:45:05.132Z,5.10
2023-04-27T03:47:31.865Z,4.90
2023-04-27T03:49:58.715Z,4.60
2023-04-27T03:52:25.456Z,5.40
2023-04-27T03:54:52.162Z,5.40
2023-04-27T03:57:18.830Z,4.55
2023-04-27T03:59:46.875Z,5.30
2023-04-27T04:02:13.735Z,5.27
2023-04-27T04:04:40.744Z,5.18
2023-04-27T04:07:07.761Z,5.07
2023-04-27T04:09:34.513Z,5.32
2023-04-27T04:12:01.232Z,5.18
2023-04-27T04:14:29.064Z,4.60
2023-04-27T04:16:57.200Z,5.28
2023-04-27T04:19:23.967Z,5.10
2023-04-27T04:21:50.690Z,4.97
2023-04-27T04:24:17.427Z,5.13
2023-04-27T04:26:44.227Z,4.55
2023-04-27T04:29:11.269Z,4.20
2023-04-27T04:31:38.280Z,4.32
2023-04-27T04:34:06.504Z,4.25
2023-04-27T04:36:33.246Z,4.97
2023-04-27T04:38:59.933Z,5.68
2023-04-27T04:41:26.711Z,4.88
2023-04-27T04:43:53.432Z,4.78
2023-04-27T04:46:20.272Z,4.90
2023-04-27T04:48:47.243Z,5.43
2023-04-27T04:51:16.583Z,6.30
2023-04-27T04:53:43.529Z,4.90
2023-04-27T04:56:11.124Z,5.10
2023-04-27T04:58:37.837Z,5.57
2023-04-27T05:01:07.958Z,5.57
2023-04-27T05:03:35.188Z,5.43
2023-04-27T05:06:02.101Z,4.55
2023-04-27T05:08:30.197Z,4.68
2023-04-27T05:10:56.949Z,6.00
2023-04-27T05:13:23.740Z,6.80
2023-04-27T05:15:51.293Z,6.40
2023-04-27T05:18:18.054Z,6.90
2023-04-27T05:20:45.050Z,6.50
2023-04-27T05:23:11.804Z,6.93
2023-04-27T05:25:39.989Z,6.10
2023-04-27T05:28:06.806Z,6.97
2023-04-27T05:30:33.550Z,6.47
2023-04-27T05:33:00.405Z,7.53
2023-04-27T05:35:27.204Z,6.65
2023-04-27T05:37:53.936Z,7.05
2023-04-27T05:40:20.754Z,7.18
2023-04-27T05:42:49.177Z,7.15
2023-04-27T05:45:16.072Z,6.28
2023-04-27T05:47:42.956Z,5.47
2023-04-27T05:50:10.465Z,5.82
2023-04-27T05:52:38.301Z,5.85
2023-04-27T05:55:06.583Z,5.45
2023-04-27T05:57:33.475Z,5.55
2023-04-27T06:00:01.762Z,5.80
2023-04-27T06:02:29.868Z,5.25
2023-04-27T06:04:56.733Z,5.30
2023-04-27T06:07:24.508Z,5.10
2023-04-27T06:09:51.226Z,4.68
2023-04-27T06:12:17.978Z,4.32
2023-04-27T06:14:44.740Z,4.40
2023-04-27T06:17:14.107Z,4.90
2023-04-27T06:19:40.886Z,4.20
2023-04-27T06:22:07.611Z,4.65
2023-04-27T06:24:35.661Z,4.10
2023-04-27T06:27:02.495Z,4.20
2023-04-27T06:29:29.244Z,4.25
2023-04-27T06:31:56.263Z,4.13
2023-04-27T06:34:24.409Z,3.92
2023-04-27T06:36:51.138Z,4.30
2023-04-27T06:39:17.900Z,4.82
2023-04-27T06:41:44.642Z,4.25
2023-04-27T06:44:11.352Z,4.30
2023-04-27T06:46:38.212Z,4.75
2023-04-27T06:49:04.985Z,3.55
2023-04-27T06:51:33.040Z,3.88
2023-04-27T06:53:59.852Z,3.40
2023-04-27T06:56:26.593Z,3.50
2023-04-27T06:58:53.297Z,2.85
2023-04-27T07:01:20.079Z,4.05
2023-04-27T07:03:47.065Z,2.90
2023-04-27T07:06:14.045Z,2.25
2023-04-27T07:08:42.811Z,2.10
2023-04-27T07:11:09.653Z,2.90
2023-04-27T07:13:36.411Z,1.85
2023-04-27T07:16:03.469Z,1.63
2023-04-27T07:18:30.308Z,1.90
2023-04-27T07:20:57.281Z,2.10
2023-04-27T07:23:24.267Z,1.83
2023-04-27T07:25:52.480Z,1.70
2023-04-27T07:28:19.424Z,1.55
2023-04-27T07:30:46.742Z,1.60
2023-04-27T07:33:14.482Z,1.63
2023-04-27T07:35:42.892Z,1.30
2023-04-27T07:38:09.893Z,1.90
2023-04-27T07:40:36.682Z,2.17
2023-04-27T07:43:04.754Z,3.10
2023-04-27T07:45:31.617Z,2.10
2023-04-27T07:47:59.110Z,1.63
2023-04-27T07:50:26.498Z,3.40
2023-04-27T07:52:53.443Z,2.70
2023-04-27T07:55:20.826Z,1.70
2023-04-27T07:57:49.939Z,2.00
2023-04-27T08:00:18.926Z,1.80
2023-04-27T08:02:46.026Z,2.22
2023-04-27T08:05:13.559Z,1.70
2023-04-27T08:07:44.564Z,1.63
2023-04-27T08:10:12.322Z,1.70
2023-04-27T08:12:39.145Z,1.50
2023-04-27T08:15:06.775Z,2.10
2023-04-27T08:17:35.012Z,2.80
2023-04-27T08:20:01.834Z,1.88
2023-04-27T08:22:28.570Z,1.98
2023-04-27T08:24:55.340Z,1.80
2023-04-27T08:27:22.119Z,1.70
2023-04-27T08:29:49.291Z,2.15
2023-04-27T08:32:16.519Z,1.88
2023-04-27T08:34:45.045Z,1.95
2023-04-27T08:37:12.209Z,1.80
2023-04-27T08:39:39.284Z,1.60
2023-04-27T08:42:11.499Z,1.83
2023-04-27T08:44:39.326Z,1.90
2023-04-27T08:47:06.128Z,1.70
2023-04-27T08:49:33.003Z,1.70
2023-04-27T08:52:02.049Z,2.22
2023-04-27T08:54:29.035Z,1.90
2023-04-27T08:56:56.069Z,1.88
2023-04-27T08:59:22.909Z,2.10
2023-04-27T09:01:49.998Z,1.70
2023-04-27T09:04:17.107Z,2.63
2023-04-27T09:06:43.945Z,2.17
2023-04-27T09:09:22.455Z,2.00
2023-04-27T09:11:49.203Z,1.92
2023-04-27T09:14:19.165Z,1.90
2023-04-27T09:16:46.160Z,2.05
2023-04-27T09:19:23.421Z,2.60
2023-04-27T09:21:50.142Z,1.98
2023-04-27T09:24:18.250Z,2.20
2023-04-27T09:26:50.058Z,2.20
2023-04-27T09:29:16.797Z,2.08
2023-04-27T09:31:43.550Z,2.28
2023-04-27T09:34:10.320Z,2.00
2023-04-27T09:36:37.749Z,2.17
2023-04-27T09:39:04.513Z,2.28
2023-04-27T09:41:33.279Z,2.13
2023-04-27T09:44:00.496Z,2.30
2023-04-27T09:46:29.067Z,2.20
2023-04-27T09:48:57.244Z,2.20
2023-04-27T09:51:23.979Z,2.00
2023-04-27T09:53:54.202Z,2.70
2023-04-27T09:56:31.339Z,2.20
2023-04-27T09:59:27.052Z,2.22
2023-04-27T10:01:57.431Z,1.92
2023-04-27T10:04:42.928Z,2.60
2023-04-27T10:07:11.310Z,2.17
2023-04-27T10:09:41.477Z,2.60
2023-04-27T10:12:21.194Z,2.03
2023-04-27T10:14:51.438Z,2.53
2023-04-27T10:17:18.622Z,2.50
2023-04-27T10:19:58.476Z,2.70
2023-04-27T10:22:37.583Z,2.90
2023-04-27T10:27:40.225Z,2.50
2023-04-27T10:30:12.051Z,3.00
2023-04-27T10:32:49.691Z,2.63
2023-04-27T10:35:16.548Z,2.58
2023-04-27T10:37:43.841Z,2.50
2023-04-27T10:40:13.350Z,2.78
2023-04-27T10:42:40.843Z,2.20
2023-04-27T10:45:11.041Z,2.90
2023-04-27T10:47:39.296Z,2.75
2023-04-27T10:50:07.735Z,3.30
2023-04-27T10:52:34.474Z,3.10
2023-04-27T10:55:12.811Z,3.78
2023-04-27T10:57:46.882Z,3.10
2023-04-27T11:00:16.868Z,2.40
2023-04-27T11:02:43.721Z,3.63
2023-04-27T11:05:17.729Z,2.85
2023-04-27T11:07:44.745Z,2.95
2023-04-27T11:10:15.642Z,4.32
2023-04-27T11:12:42.472Z,3.30
2023-04-27T11:15:10.043Z,3.17
2023-04-27T11:17:38.229Z,3.60
2023-04-27T11:20:06.003Z,3.35
2023-04-27T11:22:33.029Z,3.35
2023-04-27T11:24:59.928Z,3.50
2023-04-27T11:27:36.830Z,3.00
2023-04-27T11:30:04.183Z,3.03
2023-04-27T11:32:31.026Z,3.25
2023-04-27T11:34:59.743Z,3.33
2023-04-27T11:37:27.400Z,3.47
2023-04-27T11:39:55.083Z,3.22
2023-04-27T11:42:23.417Z,4.10
2023-04-27T11:44:52.529Z,3.63
2023-04-27T11:47:19.277Z,3.55
2023-04-27T11:49:47.993Z,3.42
2023-04-27T11:52:16.153Z,3.80
2023-04-27T11:54:48.200Z,3.75
2023-04-27T11:57:15.104Z,3.15
2023-04-27T11:59:41.841Z,3.65
2023-04-27T12:02:09.015Z,3.60
2023-04-27T12:04:38.197Z,3.58
2023-04-27T12:07:05.120Z,3.78
2023-04-27T12:09:33.547Z,3.33
2023-04-27T12:12:00.324Z,3.92
2023-04-27T12:14:27.065Z,4.22
2023-04-27T12:16:53.902Z,3.55
2023-04-27T12:19:20.818Z,3.83
2023-04-27T12:21:47.733Z,4.07
2023-04-27T12:24:14.668Z,3.63
2023-04-27T12:26:43.025Z,3.85
2023-04-27T12:29:09.823Z,4.28
2023-04-27T12:31:38.198Z,3.65
2023-04-27T12:34:05.023Z,3.72
2023-04-27T12:36:31.920Z,3.80
2023-04-27T12:39:00.120Z,3.92
2023-04-27T12:41:27.106Z,4.05
2023-04-27T12:43:55.181Z,4.38
2023-04-27T12:46:21.989Z,5.05
2023-04-27T12:48:48.839Z,3.83
2023-04-27T12:51:15.647Z,3.80
2023-04-27T12:53:42.388Z,4.00
2023-04-27T12:56:09.187Z,4.07
2023-04-27T12:58:35.996Z,4.18
2023-04-27T13:01:04.660Z,4.47
2023-04-27T13:03:31.570Z,4.28
2023-04-27T13:05:58.477Z,3.90
2023-04-27T13:08:25.238Z,4.03
2023-04-27T13:10:52.926Z,4.03
2023-04-27T13:13:19.784Z,3.80
2023-04-27T13:15:46.752Z,3.30
2023-04-27T13:18:15.108Z,3.88
2023-04-27T13:20:41.911Z,4.18
2023-04-27T13:23:08.691Z,3.92
2023-04-27T13:25:35.431Z,4.00
2023-04-27T13:28:02.208Z,4.30
2023-04-27T13:30:30.033Z,4.63
2023-04-27T13:33:01.920Z,3.90
2023-04-27T13:35:38.793Z,4.15
2023-04-27T13:38:05.574Z,3.95
2023-04-27T13:40:32.554Z,3.83
2023-04-27T13:42:59.308Z,4.47
2023-04-27T13:45:27.474Z,3.80
2023-04-27T13:47:54.220Z,4.35
2023-04-27T13:50:22.007Z,3.50
2023-04-27T13:52:50.088Z,4.22
2023-04-27T13:55:19.124Z,3.90
2023-04-27T13:57:45.996Z,4.38
2023-04-27T14:00:13.840Z,3.58
2023-04-27T14:02:41.100Z,3.70
2023-04-27T14:05:08.511Z,4.50
2023-04-27T14:07:35.306Z,4.25
2023-04-27T14:10:03.584Z,4.07
2023-04-27T14:12:30.867Z,4.32
2023-04-27T14:14:58.512Z,3.80
2023-04-27T14:17:25.346Z,3.47
2023-04-27T14:19:52.150Z,3.72
2023-04-27T14:22:18.975Z,3.50
2023-04-27T14:24:45.715Z,4.03
2023-04-27T14:27:14.517Z,4.13
2023-04-27T14:32:10.489Z,3.63
2023-04-27T14:34:37.311Z,3.90
2023-04-27T14:37:04.011Z,3.25
2023-04-27T14:39:30.760Z,4.05
2023-04-27T14:41:57.484Z,3.33
2023-04-27T14:44:25.678Z,3.70
2023-04-27T14:46:52.531Z,3.40
2023-04-27T14:49:19.513Z,3.38
2023-04-27T14:51:46.273Z,3.60
2023-04-27T14:54:13.003Z,3.10
2023-04-27T14:56:39.752Z,3.60
2023-04-27T14:59:06.506Z,4.00
2023-04-27T15:01:34.715Z,3.30
2023-04-27T15:04:01.821Z,3.25
2023-04-27T15:06:28.797Z,3.22
2023-04-27T15:08:55.999Z,3.72
2023-04-27T15:11:22.955Z,3.20
2023-04-27T15:13:49.710Z,3.67
2023-04-27T15:16:16.661Z,3.17
2023-04-27T15:18:44.760Z,3.70
2023-04-27T15:21:11.477Z,3.97
2023-04-27T15:23:38.264Z,3.58
2023-04-27T15:26:05.249Z,3.90
2023-04-27T15:28:31.995Z,3.75
2023-04-27T15:30:58.849Z,3.95
2023-04-27T15:33:26.024Z,3.60
2023-04-27T15:35:54.335Z,3.63
2023-04-27T15:38:21.071Z,3.50
2023-04-27T15:40:47.796Z,3.70
2023-04-27T15:43:14.544Z,3.50
2023-04-27T15:45:41.243Z,3.70
2023-04-27T15:48:08.076Z,4.00
2023-04-27T15:50:35.046Z,3.75
2023-04-27T15:53:03.103Z,3.67
2023-04-27T15:55:30.949Z,3.27
2023-04-27T15:57:57.697Z,3.33
2023-04-27T16:00:24.474Z,3.58
2023-04-27T16:02:56.998Z,4.00
2023-04-27T16:05:24.045Z,3.63
2023-04-27T16:07:50.977Z,4.05
2023-04-27T16:10:19.160Z,4.13
2023-04-27T16:12:45.885Z,3.67
2023-04-27T16:15:12.626Z,3.38
2023-04-27T16:17:39.478Z,4.15
2023-04-27T16:20:07.411Z,3.60
2023-04-27T16:22:34.309Z,3.45
2023-04-27T16:25:01.147Z,3.35
2023-04-27T16:27:29.305Z,3.70
2023-04-27T16:29:56.363Z,3.22
2023-04-27T16:32:23.417Z,3.53
2023-04-27T16:34:50.283Z,3.30
2023-04-27T16:37:17.029Z,3.58
2023-04-27T16:39:43.772Z,3.38
2023-04-27T16:42:10.532Z,3.83
2023-04-27T16:44:38.890Z,4.45
2023-04-27T16:47:05.640Z,4.38
2023-04-27T16:49:32.390Z,3.95
2023-04-27T16:51:59.931Z,4.60
2023-04-27T16:54:26.919Z,4.40
2023-04-27T16:56:55.212Z,4.38
2023-04-27T16:59:22.258Z,4.45
2023-04-27T17:01:50.538Z,3.72
2023-04-27T17:04:17.439Z,3.80
2023-04-27T17:06:44.241Z,3.92
2023-04-27T17:09:10.997Z,3.70
2023-04-27T17:11:37.778Z,3.72
2023-04-27T17:14:04.524Z,4.10
2023-04-27T17:16:31.402Z,3.85
2023-04-27T17:18:59.494Z,4.32
2023-04-27T17:21:27.308Z,5.03
2023-04-27T17:23:54.182Z,4.70
2023-04-27T17:26:20.910Z,6.80
2023-04-27T17:28:47.959Z,4.50
2023-04-27T17:31:14.783Z,4.20
2023-04-27T17:33:42.584Z,3.90
2023-04-27T17:36:12.185Z,4.25
2023-04-27T17:38:38.899Z,4.18
2023-04-27T17:41:05.753Z,3.80
2023-04-27T17:43:32.477Z,5.25
2023-04-27T17:45:59.244Z,4.50
2023-04-27T17:48:26.025Z,3.88
2023-04-27T17:50:53.555Z,3.75
2023-04-27T17:53:21.736Z,3.35
2023-04-27T17:55:48.505Z,3.80
2023-04-27T17:58:15.290Z,4.05
2023-04-27T18:00:42.432Z,6.00
2023-04-27T18:03:09.530Z,8.20
2023-04-27T18:05:36.478Z,5.10
2023-04-27T18:08:03.263Z,4.10
2023-04-27T18:10:31.432Z,4.10
2023-04-27T18:12:58.191Z,3.42
2023-04-27T18:15:24.995Z,3.72
2023-04-27T18:17:51.814Z,3.92
2023-04-27T18:20:18.670Z,4.32
2023-04-27T18:22:45.406Z,3.85
2023-04-27T18:25:12.194Z,4.20
2023-04-27T18:27:41.667Z,4.07
2023-04-27T18:30:08.813Z,4.35
2023-04-27T18:32:35.848Z,4.15
2023-04-27T18:35:03.023Z,3.95
2023-04-27T18:37:30.064Z,4.40
2023-04-27T18:39:56.796Z,4.63
2023-04-27T18:42:23.797Z,5.10
2023-04-27T18:44:52.987Z,4.18
2023-04-27T18:47:19.713Z,4.30
2023-04-27T18:49:46.447Z,4.45
2023-04-27T18:52:13.323Z,5.03
2023-04-27T18:54:40.052Z,8.60
2023-04-27T18:57:07.035Z,9.25
2023-04-27T18:59:33.935Z,11.82
2023-04-27T19:02:02.042Z,7.78
2023-04-27T19:04:28.922Z,6.07
2023-04-27T19:06:55.721Z,4.78
2023-04-27T19:09:22.455Z,4.40
2023-04-27T19:11:56.150Z,5.20
2023-04-27T19:14:26.704Z,4.45
2023-04-27T19:16:53.490Z,4.78
2023-04-27T19:19:21.646Z,5.03
2023-04-27T19:21:48.727Z,4.40
2023-04-27T19:24:15.521Z,5.32
2023-04-27T19:26:42.268Z,4.90
2023-04-27T19:29:09.148Z,4.45
2023-04-27T19:31:35.998Z,4.47
2023-04-27T19:34:18.249Z,5.03
2023-04-27T19:36:46.609Z,6.50
2023-04-27T19:39:13.603Z,5.05
2023-04-27T19:41:40.584Z,5.30
2023-04-27T19:44:07.327Z,4.00
2023-04-27T19:46:34.595Z,4.57
2023-04-27T19:49:01.392Z,4.50
2023-04-27T19:51:28.099Z,4.43
2023-04-27T19:53:56.198Z,5.13
2023-04-27T19:56:23.086Z,4.40
2023-04-27T19:58:50.020Z,4.47
2023-04-27T20:01:16.826Z,4.80
2023-04-27T20:03:43.835Z,6.03
2023-04-27T20:06:11.080Z,7.47
2023-04-27T20:08:38.098Z,7.80
2023-04-27T20:11:06.372Z,7.93
2023-04-27T20:13:33.141Z,7.32
2023-04-27T20:15:59.931Z,5.70
2023-04-27T20:18:26.653Z,5.57
2023-04-27T20:20:53.412Z,5.20
2023-04-27T20:23:20.154Z,4.85
2023-04-27T20:25:46.850Z,13.95
2023-04-27T20:28:14.932Z,7.13
2023-04-27T20:30:41.674Z,5.33
2023-04-27T20:33:08.495Z,5.18
2023-04-27T20:35:35.241Z,5.13
2023-04-27T20:38:01.988Z,4.90
2023-04-27T20:40:34.402Z,4.30
2023-04-27T20:43:01.402Z,5.15
2023-04-27T20:45:29.616Z,4.75
2023-04-27T20:47:56.519Z,5.10
2023-04-27T20:50:23.277Z,4.90
2023-04-27T20:52:49.994Z,5.50
2023-04-27T20:55:17.053Z,5.45
2023-04-27T20:57:43.765Z,4.88
2023-04-27T21:00:11.477Z,4.95
2023-04-27T21:02:39.665Z,4.75
2023-04-27T21:05:07.135Z,4.28
2023-04-27T21:07:33.932Z,5.03
2023-04-27T21:10:00.694Z,5.50
2023-04-27T21:12:27.388Z,4.72
2023-04-27T21:14:54.352Z,6.15
2023-04-27T21:17:21.094Z,5.15
2023-04-27T21:19:49.137Z,4.40
2023-04-27T21:22:15.902Z,4.50
2023-04-27T21:24:42.628Z,5.38
2023-04-27T21:27:09.427Z,5.20
2023-04-27T21:29:36.173Z,4.70
2023-04-27T21:32:03.110Z,4.80
2023-04-27T21:34:29.855Z,4.40
2023-04-27T21:36:57.945Z,4.60
2023-04-27T21:39:24.806Z,4.90
2023-04-27T21:41:51.589Z,4.35
2023-04-27T21:44:18.353Z,4.97
2023-04-27T21:46:45.121Z,4.75
2023-04-27T21:49:11.941Z,4.38
2023-04-27T21:51:38.684Z,5.00
2023-04-27T21:54:06.810Z,4.68
2023-04-27T21:56:33.573Z,5.00
2023-04-27T21:59:00.317Z,5.30
2023-04-27T22:01:27.236Z,5.18
2023-04-27T22:03:54.291Z,4.20
2023-04-27T22:06:21.224Z,4.38
2023-04-27T22:08:48.022Z,5.32
2023-04-27T22:11:16.184Z,5.25
2023-04-27T22:13:42.920Z,5.13
2023-04-27T22:16:11.053Z,4.88
2023-04-27T22:18:39.090Z,4.93
2023-04-27T22:21:05.937Z,4.72
2023-04-27T22:23:32.700Z,4.40
2023-04-27T22:25:59.452Z,4.85
2023-04-27T22:28:27.606Z,4.07
2023-04-27T22:30:55.346Z,5.40
2023-04-27T22:33:22.083Z,5.65
2023-04-27T22:35:48.861Z,5.15
2023-04-27T22:38:15.813Z,4.80
2023-04-27T22:40:42.533Z,5.38
2023-04-27T22:43:09.561Z,4.75
2023-04-27T22:45:39.042Z,4.88
2023-04-27T22:48:06.251Z,4.63
2023-04-27T22:50:33.019Z,5.15
2023-04-27T22:52:59.846Z,4.90
2023-04-27T22:55:26.790Z,5.38
2023-04-27T22:57:53.544Z,4.70
2023-04-27T23:00:20.777Z,5.32
2023-04-27T23:02:48.996Z,5.43
2023-04-27T23:05:16.052Z,4.15
2023-04-27T23:07:43.101Z,4.88
2023-04-27T23:10:10.474Z,5.85
2023-04-27T23:12:37.249Z,5.25
2023-04-27T23:15:04.967Z,5.90
2023-04-27T23:17:32.007Z,6.15
2023-04-27T23:20:01.492Z,5.15
2023-04-27T23:22:28.456Z,5.20
2023-04-27T23:24:55.236Z,6.03
2023-04-27T23:27:21.983Z,5.47
2023-04-27T23:29:48.717Z,5.32
2023-04-27T23:32:15.465Z,5.25
2023-04-27T23:34:44.438Z,4.97
2023-04-27T23:39:39.324Z,6.00
2023-04-27T23:42:06.351Z,5.80
2023-04-27T23:44:33.363Z,5.43
2023-04-27T23:47:00.278Z,5.97
2023-04-27T23:49:27.261Z,5.88
2023-04-27T23:51:56.377Z,5.55
2023-04-27T23:56:51.761Z,5.03
2023-04-27T23:59:18.832Z,5.65
